createdAt,value
2018-09-11T00:00:10.765Z,101901.00
2018-09-11T00:02:40.515Z,101903.00
2018-09-11T00:05:10.131Z,101909.00
2018-09-11T00:07:39.922Z,101910.00
2018-09-11T00:10:09.712Z,101906.00
2018-09-11T00:12:39.390Z,101896.00
2018-09-11T00:15:09.105Z,101897.00
2018-09-11T00:17:38.836Z,101892.00
2018-09-11T00:20:08.529Z,101898.00
2018-09-11T00:22:38.179Z,101897.00
2018-09-11T00:25:07.966Z,101889.00
2018-09-11T00:27:37.640Z,101881.00
2018-09-11T00:30:07.525Z,101878.00
2018-09-11T00:32:37.229Z,101881.00
2018-09-11T00:35:06.956Z,101884.00
2018-09-11T00:37:36.678Z,101865.00
2018-09-11T00:40:06.480Z,101870.00
2018-09-11T00:42:36.180Z,101860.00
2018-09-11T00:45:05.946Z,101861.00
2018-09-11T00:47:35.553Z,101860.00
2018-09-11T00:50:05.341Z,101857.00
2018-09-11T00:52:34.939Z,101858.00
2018-09-11T00:55:04.623Z,101861.00
2018-09-11T00:57:34.279Z,101857.00
2018-09-11T01:00:03.988Z,101857.00
2018-09-11T01:02:33.674Z,101851.00
2018-09-11T01:05:03.329Z,101850.00
2018-09-11T01:07:34.851Z,101847.00
2018-09-11T01:10:07.719Z,101840.00
2018-09-11T01:12:37.473Z,101845.00
2018-09-11T01:15:08.901Z,101843.00
2018-09-11T01:17:38.741Z,101849.00
2018-09-11T01:20:09.175Z,101851.00
2018-09-11T01:22:38.944Z,101847.00
2018-09-11T01:25:08.657Z,101847.00
2018-09-11T01:27:38.273Z,101846.00
2018-09-11T01:30:08.099Z,101857.00
2018-09-11T01:32:37.669Z,101849.00
2018-09-11T01:35:07.297Z,101850.00
2018-09-11T01:37:36.890Z,101848.00
2018-09-11T01:40:06.675Z,101850.00
2018-09-11T01:42:36.444Z,101843.00
2018-09-11T01:45:06.207Z,101837.00
2018-09-11T01:47:35.898Z,101837.00
2018-09-11T01:50:05.611Z,101838.00
2018-09-11T01:52:35.185Z,101849.00
2018-09-11T01:55:04.905Z,101847.00
2018-09-11T01:57:34.691Z,101843.00
2018-09-11T02:00:04.459Z,101851.00
2018-09-11T02:02:34.186Z,101849.00
2018-09-11T02:05:04.371Z,101843.00
2018-09-11T02:07:33.998Z,101845.00
2018-09-11T02:10:03.787Z,101842.00
2018-09-11T02:12:34.272Z,101850.00
2018-09-11T02:15:05.043Z,101856.00
2018-09-11T02:17:35.631Z,101864.00
2018-09-11T02:20:05.465Z,101862.00
2018-09-11T02:22:35.167Z,101865.00
2018-09-11T02:25:05.023Z,101871.00
2018-09-11T02:27:34.903Z,101872.00
2018-09-11T02:30:04.481Z,101865.00
2018-09-11T02:32:34.115Z,101871.00
2018-09-11T02:36:06.874Z,101858.00
2018-09-11T02:38:36.504Z,101870.00
2018-09-11T02:41:06.370Z,101870.00
2018-09-11T02:43:36.094Z,101872.00
2018-09-11T02:46:05.855Z,101881.00
2018-09-11T02:48:35.494Z,101878.00
2018-09-11T02:51:05.166Z,101878.00
2018-09-11T02:53:34.800Z,101875.00
2018-09-11T02:56:04.437Z,101880.00
2018-09-11T02:58:34.089Z,101878.00
2018-09-11T03:01:03.768Z,101870.00
2018-09-11T03:03:33.319Z,101872.00
2018-09-11T03:06:03.367Z,101870.00
2018-09-11T03:08:32.911Z,101863.00
2018-09-11T03:11:02.503Z,101860.00
2018-09-11T03:13:32.153Z,101872.00
2018-09-11T03:16:01.963Z,101870.00
2018-09-11T03:18:31.826Z,101860.00
2018-09-11T03:21:01.474Z,101872.00
2018-09-11T03:23:31.030Z,101878.00
2018-09-11T03:26:00.614Z,101870.00
2018-09-11T03:28:30.301Z,101875.00
2018-09-11T03:30:59.976Z,101857.00
2018-09-11T03:33:29.670Z,101875.00
2018-09-11T03:35:59.302Z,101881.00
2018-09-11T03:38:29.070Z,101877.00
2018-09-11T03:40:58.662Z,101873.00
2018-09-11T03:43:28.362Z,101870.00
2018-09-11T03:45:58.137Z,101861.00
2018-09-11T03:48:27.854Z,101864.00
2018-09-11T03:50:57.723Z,101869.00
2018-09-11T03:53:27.389Z,101862.00
2018-09-11T03:55:57.123Z,101870.00
2018-09-11T03:58:26.909Z,101862.00
2018-09-11T04:00:56.635Z,101864.00
2018-09-11T04:03:26.341Z,101869.00
2018-09-11T04:05:56.094Z,101870.00
2018-09-11T04:08:25.869Z,101874.00
2018-09-11T04:10:55.446Z,101873.00
2018-09-11T04:13:25.128Z,101870.00
2018-09-11T04:15:54.759Z,101857.00
2018-09-11T04:18:24.467Z,101863.00
2018-09-11T04:20:54.072Z,101860.00
2018-09-11T04:23:23.802Z,101858.00
2018-09-11T04:25:53.507Z,101863.00
2018-09-11T04:28:23.168Z,101863.00
2018-09-11T04:30:53.058Z,101865.00
2018-09-11T04:33:22.790Z,101857.00
2018-09-11T04:35:52.462Z,101856.00
2018-09-11T04:38:22.248Z,101869.00
2018-09-11T04:40:51.838Z,101856.00
2018-09-11T04:43:21.446Z,101850.00
2018-09-11T04:45:51.025Z,101853.00
2018-09-11T04:48:20.767Z,101855.00
2018-09-11T04:50:50.482Z,101849.00
2018-09-11T04:53:20.096Z,101856.00
2018-09-11T04:55:49.816Z,101849.00
2018-09-11T04:58:19.549Z,101852.00
2018-09-11T05:00:49.283Z,101835.00
2018-09-11T05:03:19.007Z,101860.00
2018-09-11T05:05:48.733Z,101854.00
2018-09-11T05:08:18.490Z,101856.00
2018-09-11T05:10:48.456Z,101847.00
2018-09-11T05:13:18.194Z,101848.00
2018-09-11T05:15:47.973Z,101837.00
2018-09-11T05:18:17.667Z,101842.00
2018-09-11T05:20:47.318Z,101840.00
2018-09-11T05:23:17.759Z,101844.00
2018-09-11T05:25:47.561Z,101845.00
2018-09-11T05:28:17.236Z,101847.00
2018-09-11T05:30:47.090Z,101846.00
2018-09-11T05:33:16.736Z,101846.00
2018-09-11T05:35:46.560Z,101854.00
2018-09-11T05:38:16.154Z,101853.00
2018-09-11T05:40:45.844Z,101847.00
2018-09-11T05:43:15.708Z,101848.00
2018-09-11T05:45:45.438Z,101847.00
2018-09-11T05:48:15.211Z,101846.00
2018-09-11T05:50:44.974Z,101850.00
2018-09-11T05:53:14.701Z,101855.00
2018-09-11T05:55:44.462Z,101855.00
2018-09-11T05:58:14.286Z,101845.00
2018-09-11T06:00:44.121Z,101870.00
2018-09-11T06:03:13.787Z,101869.00
2018-09-11T06:05:43.400Z,101860.00
2018-09-11T06:08:13.122Z,101859.00
2018-09-11T06:10:42.873Z,101861.00
2018-09-11T06:13:13.335Z,101863.00
2018-09-11T06:15:43.030Z,101856.00
2018-09-11T06:18:12.853Z,101869.00
2018-09-11T06:20:42.657Z,101872.00
2018-09-11T06:23:12.291Z,101876.00
2018-09-11T06:25:42.045Z,101871.00
2018-09-11T06:28:11.761Z,101871.00
2018-09-11T06:30:41.471Z,101874.00
2018-09-11T06:33:11.169Z,101872.00
2018-09-11T06:35:42.185Z,101873.00
2018-09-11T06:38:12.299Z,101872.00
2018-09-11T06:40:42.013Z,101870.00
2018-09-11T06:43:11.729Z,101875.00
2018-09-11T06:45:41.453Z,101858.00
2018-09-11T06:48:11.150Z,101873.00
2018-09-11T06:50:41.680Z,101863.00
2018-09-11T06:53:11.327Z,101870.00
2018-09-11T06:55:41.032Z,101869.00
2018-09-11T06:58:10.710Z,101870.00
2018-09-11T07:00:41.698Z,101874.00
2018-09-11T07:03:11.550Z,101871.00
2018-09-11T07:05:41.211Z,101882.00
2018-09-11T07:08:10.830Z,101872.00
2018-09-11T07:10:40.514Z,101878.00
2018-09-11T07:13:10.146Z,101873.00
2018-09-11T07:15:39.846Z,101873.00
2018-09-11T07:18:09.430Z,101869.00
2018-09-11T07:20:39.107Z,101870.00
2018-09-11T07:23:08.860Z,101864.00
2018-09-11T07:25:38.462Z,101862.00
2018-09-11T07:28:08.061Z,101854.00
2018-09-11T07:30:37.673Z,101850.00
2018-09-11T07:33:07.446Z,101853.00
2018-09-11T07:35:37.030Z,101852.00
2018-09-11T07:38:06.774Z,101852.00
2018-09-11T07:40:36.437Z,101865.00
2018-09-11T07:43:06.240Z,101854.00
2018-09-11T07:45:35.976Z,101863.00
2018-09-11T07:48:05.588Z,101860.00
2018-09-11T07:50:35.273Z,101859.00
2018-09-11T07:53:04.998Z,101851.00
2018-09-11T07:55:34.665Z,101846.00
2018-09-11T07:58:04.539Z,101851.00
2018-09-11T08:00:34.200Z,101853.00
2018-09-11T08:03:03.931Z,101850.00
2018-09-11T08:05:33.626Z,101849.00
2018-09-11T08:08:03.233Z,101869.00
2018-09-11T08:10:33.118Z,101863.00
2018-09-11T08:13:02.907Z,101865.00
2018-09-11T08:15:32.633Z,101871.00
2018-09-11T08:18:02.272Z,101858.00
2018-09-11T08:20:31.989Z,101869.00
2018-09-11T08:23:01.695Z,101855.00
2018-09-11T08:25:31.359Z,101858.00
2018-09-11T08:28:01.183Z,101859.00
2018-09-11T08:30:32.738Z,101870.00
2018-09-11T08:33:03.428Z,101860.00
2018-09-11T08:35:33.147Z,101865.00
2018-09-11T08:38:02.814Z,101857.00
2018-09-11T08:40:32.511Z,101870.00
2018-09-11T08:43:02.255Z,101860.00
2018-09-11T08:45:31.935Z,101870.00
2018-09-11T08:48:01.875Z,101864.00
2018-09-11T08:50:31.571Z,101871.00
2018-09-11T08:53:01.243Z,101861.00
2018-09-11T08:55:30.907Z,101870.00
2018-09-11T08:58:00.629Z,101869.00
2018-09-11T09:00:30.379Z,101875.00
2018-09-11T09:03:00.192Z,101877.00
2018-09-11T09:05:29.766Z,101871.00
2018-09-11T09:07:59.442Z,101861.00
2018-09-11T09:10:29.326Z,101873.00
2018-09-11T09:12:58.926Z,101870.00
2018-09-11T09:15:28.565Z,101871.00
2018-09-11T09:17:58.219Z,101872.00
2018-09-11T09:20:27.960Z,101871.00
2018-09-11T09:22:57.673Z,101871.00
2018-09-11T09:25:27.474Z,101883.00
2018-09-11T09:27:57.229Z,101878.00
2018-09-11T09:30:27.062Z,101884.00
2018-09-11T09:32:56.893Z,101875.00
2018-09-11T09:35:26.863Z,101871.00
2018-09-11T09:37:56.785Z,101871.00
2018-09-11T09:40:27.179Z,101877.00
2018-09-11T09:42:56.924Z,101864.00
2018-09-11T09:45:26.605Z,101858.00
2018-09-11T09:47:56.335Z,101861.00
2018-09-11T09:50:26.015Z,101877.00
2018-09-11T09:52:55.762Z,101863.00
2018-09-11T09:55:25.383Z,101863.00
2018-09-11T09:57:55.151Z,101878.00
2018-09-11T10:00:30.270Z,101869.00
2018-09-11T10:03:00.038Z,101862.00
2018-09-11T10:05:29.846Z,101865.00
2018-09-11T10:07:59.513Z,101869.00
2018-09-11T10:10:29.332Z,101862.00
2018-09-11T10:12:59.130Z,101873.00
2018-09-11T10:15:28.805Z,101861.00
2018-09-11T10:17:58.577Z,101872.00
2018-09-11T10:20:28.432Z,101860.00
2018-09-11T10:22:58.143Z,101862.00
2018-09-11T10:25:27.819Z,101857.00
2018-09-11T10:27:57.495Z,101863.00
2018-09-11T10:30:27.214Z,101864.00
2018-09-11T10:32:56.889Z,101869.00
2018-09-11T10:35:26.672Z,101870.00
2018-09-11T10:37:56.356Z,101854.00
2018-09-11T10:40:26.228Z,101855.00
2018-09-11T10:42:56.089Z,101877.00
2018-09-11T10:45:25.882Z,101873.00
2018-09-11T10:47:55.614Z,101871.00
2018-09-11T10:50:25.240Z,101888.00
2018-09-11T10:52:54.932Z,101877.00
2018-09-11T10:55:24.602Z,101874.00
2018-09-11T10:57:54.384Z,101865.00
2018-09-11T11:00:24.265Z,101861.00
2018-09-11T11:02:54.438Z,101870.00
2018-09-11T11:05:24.068Z,101856.00
2018-09-11T11:07:53.786Z,101861.00
2018-09-11T11:10:23.572Z,101855.00
2018-09-11T11:12:53.248Z,101847.00
2018-09-11T11:15:22.966Z,101845.00
2018-09-11T11:17:52.841Z,101860.00
2018-09-11T11:20:22.867Z,101858.00
2018-09-11T11:22:52.593Z,101838.00
2018-09-11T11:25:22.517Z,101835.00
2018-09-11T11:27:52.426Z,101846.00
2018-09-11T11:30:22.097Z,101841.00
2018-09-11T11:32:52.070Z,101837.00
2018-09-11T11:35:21.876Z,101835.00
2018-09-11T11:37:51.653Z,101845.00
2018-09-11T11:40:21.403Z,101845.00
2018-09-11T11:42:51.187Z,101846.00
2018-09-11T11:45:21.607Z,101841.00
2018-09-11T11:47:51.343Z,101827.00
2018-09-11T11:50:21.051Z,101819.00
2018-09-11T11:52:50.913Z,101816.00
2018-09-11T11:55:20.597Z,101811.00
2018-09-11T11:57:50.366Z,101821.00
2018-09-11T12:00:20.095Z,101829.00
2018-09-11T12:02:49.831Z,101827.00
2018-09-11T12:05:19.565Z,101815.00
2018-09-11T12:07:49.389Z,101820.00
2018-09-11T12:10:19.134Z,101817.00
2018-09-11T12:12:48.902Z,101799.00
2018-09-11T12:15:18.702Z,101800.00
2018-09-11T12:17:48.678Z,101797.00
2018-09-11T12:20:18.424Z,101794.00
2018-09-11T12:22:48.244Z,101804.00
2018-09-11T12:25:18.312Z,101798.00
2018-09-11T12:27:47.992Z,101784.00
2018-09-11T12:30:17.984Z,101789.00
2018-09-11T12:32:47.704Z,101792.00
2018-09-11T12:35:17.646Z,101790.00
2018-09-11T12:37:47.466Z,101786.00
2018-09-11T12:40:17.168Z,101803.00
2018-09-11T12:42:46.910Z,101799.00
2018-09-11T12:45:16.690Z,101802.00
2018-09-11T12:47:46.909Z,101788.00
2018-09-11T12:50:16.451Z,101791.00
2018-09-11T12:52:46.289Z,101800.00
2018-09-11T12:55:16.137Z,101792.00
2018-09-11T12:57:45.963Z,101788.00
2018-09-11T13:00:15.876Z,101803.00
2018-09-11T13:02:45.758Z,101781.00
2018-09-11T13:05:15.434Z,101794.00
2018-09-11T13:07:45.313Z,101793.00
2018-09-11T13:10:15.076Z,101781.00
2018-09-11T13:12:44.825Z,101779.00
2018-09-11T13:15:14.686Z,101786.00
2018-09-11T13:17:44.515Z,101788.00
2018-09-11T13:20:14.621Z,101775.00
2018-09-11T13:22:44.380Z,101776.00
2018-09-11T13:25:14.242Z,101769.00
2018-09-11T13:27:45.794Z,101765.00
2018-09-11T13:30:15.477Z,101773.00
2018-09-11T13:32:45.213Z,101776.00
2018-09-11T13:35:15.080Z,101772.00
2018-09-11T13:37:44.783Z,101781.00
2018-09-11T13:40:14.563Z,101760.00
2018-09-11T13:42:44.152Z,101759.00
2018-09-11T13:45:13.959Z,101760.00
2018-09-11T13:47:43.885Z,101770.00
2018-09-11T13:50:13.575Z,101760.00
2018-09-11T13:52:43.642Z,101761.00
2018-09-11T13:55:13.218Z,101758.00
2018-09-11T13:57:43.100Z,101749.00
2018-09-11T14:00:12.921Z,101745.00
2018-09-11T14:02:42.680Z,101741.00
2018-09-11T14:05:12.382Z,101736.00
2018-09-11T14:07:42.133Z,101740.00
2018-09-11T14:10:11.864Z,101747.00
2018-09-11T14:12:41.550Z,101737.00
2018-09-11T14:15:11.350Z,101738.00
2018-09-11T14:17:40.989Z,101742.00
2018-09-11T14:20:10.652Z,101729.00
2018-09-11T14:22:42.178Z,101730.00
2018-09-11T14:25:11.833Z,101739.00
2018-09-11T14:27:41.675Z,101736.00
2018-09-11T14:30:11.381Z,101741.00
2018-09-11T14:32:41.013Z,101730.00
2018-09-11T14:35:10.738Z,101733.00
2018-09-11T14:37:40.412Z,101733.00
2018-09-11T14:40:10.069Z,101728.00
2018-09-11T14:42:39.860Z,101733.00
2018-09-11T14:45:09.683Z,101735.00
2018-09-11T14:47:42.286Z,101729.00
2018-09-11T14:50:13.430Z,101721.00
2018-09-11T14:52:43.191Z,101721.00
2018-09-11T14:55:12.911Z,101734.00
2018-09-11T14:57:42.617Z,101731.00
2018-09-11T15:00:12.329Z,101732.00
2018-09-11T15:02:41.978Z,101735.00
2018-09-11T15:05:11.736Z,101730.00
2018-09-11T15:07:41.360Z,101731.00
2018-09-11T15:10:11.124Z,101723.00
2018-09-11T15:12:40.849Z,101719.00
2018-09-11T15:15:10.660Z,101712.00
2018-09-11T15:17:40.365Z,101729.00
2018-09-11T15:20:10.200Z,101718.00
2018-09-11T15:22:39.870Z,101714.00
2018-09-11T15:25:09.601Z,101711.00
2018-09-11T15:27:39.305Z,101701.00
2018-09-11T15:30:08.995Z,101710.00
2018-09-11T15:32:38.833Z,101708.00
2018-09-11T15:35:08.818Z,101707.00
2018-09-11T15:37:38.668Z,101703.00
2018-09-11T15:40:08.387Z,101704.00
2018-09-11T15:42:38.061Z,101697.00
2018-09-11T15:45:07.812Z,101713.00
2018-09-11T15:47:37.535Z,101702.00
2018-09-11T15:50:07.204Z,101698.00
2018-09-11T15:52:36.822Z,101691.00
2018-09-11T15:55:06.685Z,101695.00
2018-09-11T15:57:36.407Z,101683.00
2018-09-11T16:00:06.174Z,101682.00
2018-09-11T16:02:35.950Z,101681.00
2018-09-11T16:05:05.596Z,101677.00
2018-09-11T16:07:35.323Z,101676.00
2018-09-11T16:10:05.376Z,101672.00
2018-09-11T16:12:34.984Z,101676.00
2018-09-11T16:15:04.812Z,101676.00
2018-09-11T16:17:34.362Z,101675.00
2018-09-11T16:20:04.080Z,101682.00
2018-09-11T16:22:34.599Z,101677.00
2018-09-11T16:25:04.828Z,101672.00
2018-09-11T16:27:34.788Z,101680.00
2018-09-11T16:30:04.508Z,101676.00
2018-09-11T16:32:34.392Z,101668.00
2018-09-11T16:35:04.134Z,101667.00
2018-09-11T16:37:33.897Z,101673.00
2018-09-11T16:40:03.620Z,101670.00
2018-09-11T16:42:33.385Z,101667.00
2018-09-11T16:45:03.086Z,101677.00
2018-09-11T16:47:32.833Z,101673.00
2018-09-11T16:50:02.590Z,101671.00
2018-09-11T16:52:32.229Z,101673.00
2018-09-11T16:55:01.964Z,101667.00
2018-09-11T16:57:31.790Z,101667.00
2018-09-11T17:00:01.461Z,101677.00
2018-09-11T17:02:31.187Z,101677.00
2018-09-11T17:05:00.986Z,101678.00
2018-09-11T17:07:30.732Z,101677.00
2018-09-11T17:10:00.270Z,101675.00
2018-09-11T17:12:30.057Z,101679.00
2018-09-11T17:14:59.696Z,101682.00
2018-09-11T17:17:29.304Z,101681.00
2018-09-11T17:19:59.026Z,101678.00
2018-09-11T17:22:28.746Z,101682.00
2018-09-11T17:24:58.542Z,101682.00
2018-09-11T17:27:28.248Z,101682.00
2018-09-11T17:29:59.215Z,101686.00
2018-09-11T17:32:29.027Z,101686.00
2018-09-11T17:34:58.656Z,101689.00
2018-09-11T17:37:28.403Z,101689.00
2018-09-11T17:39:58.326Z,101695.00
2018-09-11T17:42:27.984Z,101708.00
2018-09-11T17:44:57.846Z,101698.00
2018-09-11T17:47:27.640Z,101701.00
2018-09-11T17:49:57.372Z,101711.00
2018-09-11T17:52:26.960Z,101714.00
2018-09-11T17:54:56.848Z,101715.00
2018-09-11T17:57:26.433Z,101717.00
2018-09-11T17:59:56.270Z,101720.00
2018-09-11T18:02:26.023Z,101718.00
2018-09-11T18:04:55.791Z,101705.00
2018-09-11T18:07:25.665Z,101716.00
2018-09-11T18:09:55.297Z,101710.00
2018-09-11T18:12:24.927Z,101717.00
2018-09-11T18:14:54.891Z,101712.00
2018-09-11T18:17:24.628Z,101727.00
2018-09-11T18:19:54.487Z,101728.00
2018-09-11T18:22:24.174Z,101729.00
2018-09-11T18:24:54.115Z,101729.00
2018-09-11T18:27:23.828Z,101728.00
2018-09-11T18:29:53.707Z,101735.00
2018-09-11T18:32:23.503Z,101735.00
2018-09-11T18:34:53.513Z,101735.00
2018-09-11T18:37:23.276Z,101733.00
2018-09-11T18:39:53.133Z,101740.00
2018-09-11T18:42:22.919Z,101745.00
2018-09-11T18:44:52.718Z,101748.00
2018-09-11T18:47:22.535Z,101749.00
2018-09-11T18:49:52.295Z,101756.00
2018-09-11T18:52:22.048Z,101753.00
2018-09-11T18:54:51.798Z,101758.00
2018-09-11T18:57:21.423Z,101759.00
2018-09-11T18:59:51.159Z,101754.00
2018-09-11T19:02:20.825Z,101762.00
2018-09-11T19:04:50.523Z,101764.00
2018-09-11T19:07:20.110Z,101770.00
2018-09-11T19:09:49.762Z,101768.00
2018-09-11T19:12:19.528Z,101763.00
2018-09-11T19:14:49.262Z,101769.00
2018-09-11T19:17:18.973Z,101775.00
2018-09-11T19:19:48.732Z,101767.00
2018-09-11T19:22:18.288Z,101777.00
2018-09-11T19:24:48.039Z,101765.00
2018-09-11T19:27:17.844Z,101766.00
2018-09-11T19:29:47.530Z,101768.00
2018-09-11T19:32:17.313Z,101762.00
2018-09-11T19:34:46.998Z,101764.00
2018-09-11T19:37:16.696Z,101768.00
2018-09-11T19:39:46.419Z,101768.00
2018-09-11T19:42:16.133Z,101770.00
2018-09-11T19:44:45.836Z,101763.00
2018-09-11T19:47:15.725Z,101764.00
2018-09-11T19:49:45.437Z,101774.00
2018-09-11T19:52:15.101Z,101767.00
2018-09-11T19:54:44.890Z,101767.00
2018-09-11T19:57:14.507Z,101770.00
2018-09-11T19:59:44.214Z,101770.00
2018-09-11T20:02:13.879Z,101770.00
2018-09-11T20:04:43.622Z,101769.00
2018-09-11T20:07:14.315Z,101772.00
2018-09-11T20:09:44.048Z,101767.00
2018-09-11T20:12:13.668Z,101768.00
2018-09-11T20:14:43.822Z,101779.00
2018-09-11T20:17:14.438Z,101771.00
2018-09-11T20:19:44.138Z,101777.00
2018-09-11T20:22:13.870Z,101779.00
2018-09-11T20:24:43.629Z,101770.00
2018-09-11T20:27:13.496Z,101774.00
2018-09-11T20:29:43.278Z,101772.00
2018-09-11T20:32:13.045Z,101767.00
2018-09-11T20:34:43.653Z,101776.00
2018-09-11T20:37:13.445Z,101762.00
2018-09-11T20:39:43.120Z,101769.00
2018-09-11T20:42:12.852Z,101763.00
2018-09-11T20:44:42.584Z,101761.00
2018-09-11T20:47:12.279Z,101753.00
2018-09-11T20:49:41.993Z,101759.00
2018-09-11T20:52:11.729Z,101761.00
2018-09-11T20:54:41.441Z,101759.00
2018-09-11T20:57:11.135Z,101758.00
2018-09-11T20:59:41.154Z,101765.00
2018-09-11T21:02:11.100Z,101764.00
2018-09-11T21:04:40.826Z,101764.00
2018-09-11T21:07:10.461Z,101772.00
2018-09-11T21:09:40.111Z,101775.00
2018-09-11T21:12:09.851Z,101778.00
2018-09-11T21:14:39.546Z,101780.00
2018-09-11T21:17:09.569Z,101788.00
2018-09-11T21:19:39.325Z,101786.00
2018-09-11T21:22:09.047Z,101786.00
2018-09-11T21:24:39.531Z,101785.00
2018-09-11T21:27:09.366Z,101794.00
2018-09-11T21:29:39.217Z,101796.00
2018-09-11T21:32:08.901Z,101795.00
2018-09-11T21:34:38.673Z,101794.00
2018-09-11T21:37:08.409Z,101794.00
2018-09-11T21:39:38.131Z,101791.00
2018-09-11T21:42:07.987Z,101798.00
2018-09-11T21:44:37.752Z,101797.00
2018-09-11T21:47:07.495Z,101798.00
2018-09-11T21:49:37.154Z,101798.00
2018-09-11T21:52:06.954Z,101792.00
2018-09-11T21:54:36.582Z,101795.00
2018-09-11T21:57:06.360Z,101798.00
2018-09-11T21:59:36.014Z,101798.00
2018-09-11T22:02:05.758Z,101798.00
2018-09-11T22:04:35.361Z,101792.00
2018-09-11T22:07:05.184Z,101789.00
2018-09-11T22:09:34.852Z,101789.00
2018-09-11T22:12:04.523Z,101793.00
2018-09-11T22:14:34.241Z,101793.00
2018-09-11T22:17:03.951Z,101790.00
2018-09-11T22:19:33.635Z,101795.00
2018-09-11T22:22:03.233Z,101792.00
2018-09-11T22:24:32.867Z,101792.00
2018-09-11T22:27:02.473Z,101790.00
2018-09-11T22:29:32.171Z,101791.00
2018-09-11T22:32:01.791Z,101799.00
2018-09-11T22:34:31.497Z,101799.00
2018-09-11T22:37:01.144Z,101795.00
2018-09-11T22:39:30.831Z,101789.00
2018-09-11T22:42:00.422Z,101790.00
2018-09-11T22:44:30.052Z,101780.00
2018-09-11T22:47:00.199Z,101778.00
2018-09-11T22:49:29.890Z,101784.00
2018-09-11T22:51:59.659Z,101781.00
2018-09-11T22:54:29.310Z,101782.00
2018-09-11T22:56:58.931Z,101778.00
2018-09-11T22:59:28.626Z,101779.00
2018-09-11T23:01:58.206Z,101778.00
2018-09-11T23:04:27.822Z,101783.00
2018-09-11T23:06:57.446Z,101773.00
2018-09-11T23:09:27.136Z,101765.00
2018-09-11T23:11:56.772Z,101767.00
2018-09-11T23:14:26.489Z,101772.00
2018-09-11T23:16:56.133Z,101761.00
2018-09-11T23:19:25.791Z,101762.00
2018-09-11T23:21:55.526Z,101760.00
2018-09-11T23:24:25.171Z,101756.00
2018-09-11T23:26:54.784Z,101755.00
2018-09-11T23:29:24.439Z,101754.00
2018-09-11T23:31:54.005Z,101744.00
2018-09-11T23:34:23.609Z,101746.00
2018-09-11T23:36:53.494Z,101751.00
2018-09-11T23:39:23.074Z,101748.00
2018-09-11T23:41:52.725Z,101740.00
2018-09-11T23:44:22.582Z,101744.00
2018-09-11T23:46:52.227Z,101734.00
2018-09-11T23:49:21.846Z,101738.00
2018-09-11T23:51:51.604Z,101738.00
2018-09-11T23:54:21.277Z,101742.00
2018-09-11T23:56:50.928Z,101750.00
2018-09-11T23:59:20.429Z,101744.00
